Time;durP1;ratioP1;P1;durP2;ratioP2;P2;SDS_P1;SDS_P2;PMS_P1;PMS_P2;Temp;Humidity;BMP_temperature;BMP_pressure;BME280_temperature;BME280_humidity;BME280_pressure;Samples;Min_cycle;Max_cycle;Signal;HPM_P1;HPM_P2
2022/03/17 00:07:15;;;;;;;4.80;3.80;;;;;;;;;;20627971;28;20227;-67
2022/03/17 00:17:17;;;;;;;5.30;4.07;;;9.40;99.90;;;;;;20643751;28;20641;-67
2022/03/17 00:27:19;;;;;;;5.57;4.00;;;;;;;;;;20659188;28;20270;-67
2022/03/17 00:37:23;;;;;;;4.60;3.40;;;9.50;99.90;;;;;;20626725;28;20212;-67
2022/03/17 00:47:25;;;;;;;6.13;5.00;;;;;;;;;;20642149;28;20212;-67
2022/03/17 00:57:27;;;;;;;7.43;5.03;;;;;;;;;;20658526;28;20212;-67
2022/03/17 01:07:28;;;;;;;7.10;4.87;;;9.50;99.90;;;;;;20647875;28;20220;-67
2022/03/17 01:17:30;;;;;;;6.57;4.87;;;;;;;;;;20655871;28;20278;-67
2022/03/17 01:27:34;;;;;;;7.13;4.70;;;;;;;;;;20639445;28;20274;-66
2022/03/17 01:37:36;;;;;;;7.27;4.83;;;9.50;99.90;;;;;;20638949;28;20274;-67
2022/03/17 01:47:38;;;;;;;5.53;3.97;;;9.40;99.90;;;;;;20638124;28;20240;-67
2022/03/17 01:57:40;;;;;;;6.97;4.67;;;9.40;99.90;;;;;;20653902;28;20274;-67
2022/03/17 02:07:46;;;;;;;7.83;5.13;;;;;;;;;;20652640;28;20219;-67
2022/03/17 02:17:48;;;;;;;5.87;4.30;;;;;;;;;;20684439;28;20211;-67
2022/03/17 02:27:50;;;;;;;7.07;5.43;;;;;;;;;;20651263;28;20211;-67
2022/03/17 02:37:52;;;;;;;7.10;5.40;;;9.30;99.90;;;;;;20666306;28;20208;-67
2022/03/17 02:47:54;;;;;;;8.23;5.07;;;;;;;;;;20665321;28;20216;-66
2022/03/17 02:57:56;;;;;;;6.83;4.77;;;;;;;;;;20664969;28;20552;-67
2022/03/17 03:07:58;;;;;;;5.87;4.43;;;;;;;;;;20648349;28;20216;-67
2022/03/17 03:17:59;;;;;;;6.43;4.53;;;9.40;99.90;;;;;;20631139;28;20223;-67
2022/03/17 03:28:05;;;;;;;8.10;5.17;;;;;;;;;;20646019;28;20212;-67
2022/03/17 03:38:07;;;;;;;6.83;4.77;;;;;;;;;;20645645;28;20211;-67
2022/03/17 03:48:09;;;;;;;6.37;4.80;;;;;;;;;;20645312;28;20691;-67
2022/03/17 03:58:12;;;;;;;5.93;4.53;;;;;;;;;;20644517;28;20200;-67
2022/03/17 04:08:14;;;;;;;6.80;4.80;;;;;;;;;;20644281;28;20263;-67
2022/03/17 04:18:16;;;;;;;6.07;4.60;;;;;;;;;;20643681;28;20289;-67
2022/03/17 04:28:18;;;;;;;5.97;4.90;;;;;;;;;;20646333;28;20220;-67
2022/03/17 04:38:20;;;;;;;6.77;4.43;;;;;;;;;;20631882;28;20278;-67
2022/03/17 04:48:22;;;;;;;6.90;5.23;;;;;;;;;;20664831;28;20223;-67
2022/03/17 04:58:24;;;;;;;5.90;4.43;;;;;;;;;;20651431;28;20212;-67
2022/03/17 05:08:25;;;;;;;6.47;4.90;;;9.00;99.90;;;;;;20672751;28;20686;-67
2022/03/17 05:18:27;;;;;;;6.50;4.03;;;;;;;;;;20672464;28;20216;-67
2022/03/17 05:28:30;;;;;;;5.70;4.57;;;;;;;;;;20639841;28;20290;-66
2022/03/17 05:38:32;;;;;;;8.07;5.10;;;;;;;;;;20660833;28;20212;-66
2022/03/17 05:48:34;;;;;;;8.90;5.80;;;;;;;;;;20637452;28;20691;-66
2022/03/17 05:58:36;;;;;;;7.10;5.23;;;;;;;;;;20662351;28;20219;-66
2022/03/17 06:08:37;;;;;;;6.80;4.83;;;;;;;;;;20655804;28;20572;-66
2022/03/17 06:18:40;;;;;;;5.87;4.30;;;;;;;;;;20635652;28;20227;-66
2022/03/17 06:28:42;;;;;;;6.07;4.37;;;;;;;;;;20719800;23;20244;-67
2022/03/17 06:38:44;;;;;;;9.93;5.97;;;;;;;;;;20795072;28;20272;-67
2022/03/17 06:48:46;;;;;;;8.50;5.77;;;;;;;;;;20773367;28;20231;-67
2022/03/17 06:58:47;;;;;;;8.10;5.70;;;;;;;;;;20792441;28;20642;-67
2022/03/17 07:08:49;;;;;;;8.03;5.37;;;;;;;;;;20776832;28;20219;-67
2022/03/17 07:18:51;;;;;;;9.17;5.10;;;;;;;;;;20780887;28;20214;-67
2022/03/17 07:28:54;;;;;;;7.17;4.70;;;;;;;;;;20782011;22;20231;-66
2022/03/17 07:38:57;;;;;;;6.20;4.37;;;;;;;;;;20709736;28;20271;-67
2022/03/17 07:48:59;;;;;;;5.87;4.00;;;;;;;;;;20693348;28;20227;-67
2022/03/17 07:59:10;;;;;;;7.60;5.37;;;;;;;;;;20724754;28;20280;-67
2022/03/17 08:09:12;;;;;;;5.43;4.33;;;;;;;;;;20708097;28;20215;-67
2022/03/17 08:19:14;;;;;;;7.57;4.70;;;10.00;99.90;;;;;;20707408;28;20257;-67
2022/03/17 08:29:16;;;;;;;6.07;4.73;;;;;;;;;;20723495;28;20215;-67
2022/03/17 08:39:18;;;;;;;6.63;4.30;;;;;;;;;;20707299;28;20632;-67
2022/03/17 08:49:20;;;;;;;8.23;5.20;;;;;;;;;;20699960;28;20222;-67
2022/03/17 08:59:21;;;;;;;7.17;4.40;;;;;;;;;;20705347;28;20242;-66
2022/03/17 09:09:23;;;;;;;6.93;5.13;;;;;;;;;;20705332;28;20219;-66
2022/03/17 09:19:25;;;;;;;7.27;4.67;;;;;;;;;;20721113;28;20694;-66
2022/03/17 09:29:30;;;;;;;9.00;5.23;;;9.60;99.90;;;;;;20696099;28;20219;-66
2022/03/17 09:39:47;;;;;;;8.10;4.73;;;;;;;;;;20717749;28;20718;-67
2022/03/17 09:49:52;;;;;;;7.33;5.07;;;;;;;;;;20696802;28;20231;-67
2022/03/17 09:59:56;;;;;;;6.27;4.87;;;;;;;;;;20709268;28;20265;-68
2022/03/17 10:09:58;;;;;;;7.67;5.13;;;;;;;;;;20694753;28;20215;-66
2022/03/17 10:20:18;;;;;;;6.83;5.23;;;11.20;99.90;;;;;;20731787;28;20632;-65
2022/03/17 10:30:33;;;;;;;7.90;5.53;;;11.10;99.90;;;;;;20730549;28;20764;-66
2022/03/17 10:40:35;;;;;;;6.93;5.23;;;;;;;;;;20714448;28;20211;-66
2022/03/17 10:50:38;;;;;;;7.33;5.27;;;;;;;;;;20695967;28;20273;-65
2022/03/17 11:00:50;;;;;;;7.07;5.27;;;10.80;99.90;;;;;;20711424;28;20202;-66
2022/03/17 11:10:52;;;;;;;7.07;4.77;;;;;;;;;;20711247;28;20349;-68
2022/03/17 11:21:15;;;;;;;6.23;4.77;;;10.90;99.90;;;;;;20711156;28;20211;-66
2022/03/17 11:31:19;;;;;;;9.17;5.27;;;10.90;99.90;;;;;;20709465;28;20237;-66
2022/03/17 11:41:22;;;;;;;6.77;4.97;;;;;;;;;;20693318;28;20293;-66
2022/03/17 11:51:25;;;;;;;7.03;4.83;;;11.00;99.90;;;;;;20723991;28;20218;-66
2022/03/17 12:01:34;;;;;;;8.13;5.60;;;;;;;;;;20723805;28;20211;-66
2022/03/17 12:11:47;;;;;;;8.53;5.60;;;11.00;99.90;;;;;;20723632;28;20287;-66
2022/03/17 12:21:57;;;;;;;8.43;5.20;;;10.90;99.90;;;;;;20739528;28;20210;-65
2022/03/17 12:32:03;;;;;;;5.63;3.80;;;;;;;;;;20746866;23;20230;-72
2022/03/17 12:42:14;;;;;;;4.47;3.27;;;10.90;99.90;;;;;;20807641;28;20246;-75
2022/03/17 12:52:21;;;;;;;4.90;2.47;;;10.30;99.90;;;;;;20816102;28;20244;-72
2022/03/17 13:02:24;;;;;;;6.53;2.50;;;;;;;;;;20820773;28;20210;-74
2022/03/17 13:22:57;;;;;;;3.77;2.30;;;;;;;;;;20823277;28;20210;-75
2022/03/17 13:33:02;;;;;;;3.33;2.00;;;10.50;99.90;;;;;;20829741;28;20268;-75
2022/03/17 13:43:05;;;;;;;2.97;1.77;;;;;;;;;;20828108;28;20207;-74
2022/03/17 13:53:09;;;;;;;3.30;1.80;;;;;;;;;;20827590;28;20601;-75
2022/03/17 14:03:32;;;;;;;4.33;2.63;;;10.40;99.90;;;;;;20827424;28;20211;-74
2022/03/17 14:13:34;;;;;;;4.40;2.17;;;;;;;;;;20825781;28;20218;-75
2022/03/17 14:33:58;;;;;;;3.27;2.20;;;10.20;99.90;;;;;;20825721;28;20218;-74
2022/03/17 14:44:00;;;;;;;4.53;2.57;;;;;;;;;;20823513;28;20206;-75
2022/03/17 14:54:02;;;;;;;2.97;2.13;;;;;;;;;;20824378;28;20210;-75
2022/03/17 15:04:04;;;;;;;3.70;2.53;;;;;;;;;;20823884;28;20740;-75
2022/03/17 15:14:05;;;;;;;4.93;2.80;;;;;;;;;;20820513;28;20771;-75
2022/03/17 15:24:07;;;;;;;3.60;2.80;;;;;;;;;;20819597;28;20272;-72
2022/03/17 15:34:09;;;;;;;3.53;1.93;;;;;;;;;;20820597;28;20230;-75
2022/03/17 15:44:11;;;;;;;4.30;2.37;;;;;;;;;;20803626;28;20297;-74
2022/03/17 15:54:13;;;;;;;3.33;2.40;;;;;;;;;;20812694;28;20625;-74
2022/03/17 16:04:15;;;;;;;3.23;2.17;;;;;;;;;;20818409;28;20210;-74
2022/03/17 16:14:29;;;;;;;2.53;1.87;;;;;;;;;;20817528;28;20206;-72
2022/03/17 16:24:31;;;;;;;3.40;1.47;;;;;;;;;;20822044;28;20198;-73
2022/03/17 16:34:33;;;;;;;3.63;1.33;;;;;;;;;;20815791;28;20280;-71
2022/03/17 16:44:35;;;;;;;2.53;1.50;;;;;;;;;;20829686;28;20237;-72
2022/03/17 16:54:38;;;;;;;1.97;1.17;;;;;;;;;;20827627;28;20355;-73
2022/03/17 17:04:40;;;;;;;3.53;1.60;;;;;;;;;;20834586;28;20206;-73
2022/03/17 17:14:42;;;;;;;2.87;1.40;;;;;;;;;;20835446;28;20210;-73
2022/03/17 17:35:04;;;;;;;3.13;1.60;;;;;;;;;;20830510;28;20226;-72
2022/03/17 17:45:11;;;;;;;3.93;2.13;;;9.90;99.90;;;;;;20832325;28;20203;-74
2022/03/17 17:55:14;;;;;;;2.63;1.83;;;;;;;;;;20824319;28;20702;-73
2022/03/17 18:05:15;;;;;;;3.30;2.00;;;;;;;;;;20800961;28;20215;-73
2022/03/17 18:15:17;;;;;;;3.53;2.10;;;;;;;;;;20821418;28;20288;-73
2022/03/17 18:25:19;;;;;;;2.87;1.80;;;;;;;;;;20810978;28;20312;-73
2022/03/17 18:35:22;;;;;;;2.70;1.70;;;;;;;;;;20826343;28;20219;-73
2022/03/17 18:45:24;;;;;;;3.23;1.83;;;;;;;;;;20804093;28;20276;-71
2022/03/17 18:55:26;;;;;;;2.40;1.70;;;;;;;;;;20812970;28;20435;-73
2022/03/17 19:05:29;;;;;;;3.57;1.97;;;;;;;;;;20721726;22;20236;-80
2022/03/17 19:15:31;;;;;;;3.07;2.23;;;;;;;;;;20658340;28;20228;-80
2022/03/17 19:25:33;;;;;;;3.80;1.80;;;;;;;;;;20642163;28;20343;-80
2022/03/17 19:35:35;;;;;;;3.03;1.67;;;;;;;;;;20641767;28;20705;-80
2022/03/17 19:45:37;;;;;;;3.53;2.00;;;;;;;;;;20657688;28;20216;-81
2022/03/17 19:55:41;;;;;;;2.20;1.47;;;;;;;;;;20641973;28;20232;-80
2022/03/17 20:05:43;;;;;;;3.00;1.93;;;;;;;;;;20653058;28;20219;-82
2022/03/17 20:15:45;;;;;;;2.37;1.57;;;;;;;;;;20642504;28;20298;-82
2022/03/17 20:25:47;;;;;;;2.00;1.40;;;;;;;;;;20651207;28;20212;-82
2022/03/17 20:35:55;;;;;;;2.33;1.47;;;;;;;;;;20662940;28;20330;-83
2022/03/17 20:57:45;;;;;;;2.60;1.30;;;;;;;;;;20668613;28;20271;-83
2022/03/17 21:08:22;;;;;;;1.80;1.00;;;;;;;;;;20623647;28;20756;-82
2022/03/17 21:18:27;;;;;;;1.57;1.13;;;;;;;;;;20601692;28;20212;-82
2022/03/17 21:28:31;;;;;;;1.33;0.90;;;;;;;;;;20651294;28;20207;-82
2022/03/17 21:38:37;;;;;;;1.60;0.90;;;;;;;;;;20669169;28;20243;-82
2022/03/17 21:48:50;;;;;;;3.10;1.10;;;;;;;;;;20667248;22;20718;-65
2022/03/17 21:58:52;;;;;;;0.73;0.40;;;;;;;;;;20638900;28;20278;-65
2022/03/17 22:08:54;;;;;;;0.47;0.47;;;;;;;;;;20626686;28;20295;-65
2022/03/17 22:18:55;;;;;;;0.70;0.40;;;;;;;;;;20619515;28;20216;-65
2022/03/17 22:28:58;;;;;;;5.40;0.87;;;;;;;;;;20621979;28;20219;-65
2022/03/17 22:38:59;;;;;;;0.80;0.43;;;;;;;;;;20619523;28;20282;-65
2022/03/17 22:49:03;;;;;;;0.90;0.40;;;8.90;99.90;;;;;;20666533;28;20666;-65
2022/03/17 22:59:05;;;;;;;1.70;0.67;;;;;;;;;;20649718;28;20616;-65
2022/03/17 23:09:07;;;;;;;0.93;0.50;;;;;;;;;;20649527;28;20220;-65
2022/03/17 23:19:08;;;;;;;1.03;0.53;;;;;;;;;;20632601;28;20235;-64
2022/03/17 23:29:10;;;;;;;3.40;0.50;;;;;;;;;;20615871;28;20577;-65
2022/03/17 23:39:12;;;;;;;1.83;0.63;;;;;;;;;;20663535;28;20707;-65
2022/03/17 23:49:15;;;;;;;3.30;1.50;;;;;;;;;;20645663;28;20212;-65
2022/03/17 23:59:17;;;;;;;1.23;0.50;;;;;;;;;;20645251;28;20208;-65
